createdAt,value
2024-01-16T00:02:20.761Z,94573.94
2024-01-16T00:06:03.839Z,94574.59
2024-01-16T00:09:47.847Z,94597.09
2024-01-16T00:13:32.120Z,94585.47
2024-01-16T00:17:15.052Z,94593.56
2024-01-16T00:20:57.984Z,94599.78
2024-01-16T00:24:41.329Z,94595.19
2024-01-16T00:28:24.188Z,94607.34
2024-01-16T00:32:08.675Z,94600.16
2024-01-16T00:35:52.414Z,94598.09
2024-01-16T00:39:35.399Z,94604.91
2024-01-16T00:43:18.354Z,94615.38
2024-01-16T00:47:02.886Z,94619.44
2024-01-16T00:50:47.520Z,94620.66
2024-01-16T00:54:30.488Z,94624.72
2024-01-16T00:58:13.800Z,94629.06
2024-01-16T01:01:56.661Z,94629.47
2024-01-16T01:05:39.934Z,94627.03
2024-01-16T01:09:24.616Z,94638.03
2024-01-16T01:13:07.480Z,94640.44
2024-01-16T01:16:50.399Z,94636.53
2024-01-16T01:20:33.431Z,94648.59
2024-01-16T01:24:16.427Z,94649.66
2024-01-16T01:28:01.353Z,94656.72
2024-01-16T01:31:47.974Z,94655.75
2024-01-16T01:35:30.838Z,94661.97
2024-01-16T01:39:13.773Z,94676.47
2024-01-16T01:42:56.680Z,94686.34
2024-01-16T01:46:41.417Z,94685.25
2024-01-16T01:50:24.358Z,94688.09
2024-01-16T01:54:07.346Z,94688.50
2024-01-16T01:57:50.178Z,94692.69
2024-01-16T02:01:33.930Z,94696.22
2024-01-16T02:05:18.454Z,94693.53
2024-01-16T02:09:01.513Z,94694.59
2024-01-16T02:12:44.409Z,94696.75
2024-01-16T02:16:27.403Z,94697.28
2024-01-16T02:20:11.514Z,94701.38
2024-01-16T02:23:56.191Z,94702.19
2024-01-16T02:27:39.296Z,94701.25
2024-01-16T02:31:22.125Z,94694.19
2024-01-16T02:35:06.382Z,94703.53
2024-01-16T02:38:49.757Z,94708.97
2024-01-16T02:42:34.023Z,94705.16
2024-01-16T02:46:17.288Z,94710.19
2024-01-16T02:50:00.499Z,94714.38
2024-01-16T02:53:43.572Z,94705.44
2024-01-16T02:57:26.581Z,94706.78
2024-01-16T03:01:10.897Z,94710.84
2024-01-16T03:04:53.887Z,94719.78
2024-01-16T03:08:36.810Z,94713.28
2024-01-16T03:12:19.696Z,94708.16
2024-01-16T03:16:03.218Z,94716.53
2024-01-16T03:19:47.659Z,94716.41
2024-01-16T03:23:30.604Z,94716.28
2024-01-16T03:27:13.758Z,94729.81
2024-01-16T03:30:56.799Z,94729.53
2024-01-16T03:34:39.784Z,94727.91
2024-01-16T03:38:24.132Z,94724.88
2024-01-16T03:42:07.139Z,94719.47
2024-01-16T03:45:50.076Z,94725.69
2024-01-16T03:49:33.064Z,94723.53
2024-01-16T03:53:16.013Z,94707.97
2024-01-16T03:57:03.336Z,94727.84
2024-01-16T04:00:46.587Z,94719.19
2024-01-16T04:04:29.462Z,94727.97
2024-01-16T04:08:13.663Z,94718.53
2024-01-16T04:11:56.652Z,94719.66
2024-01-16T04:15:41.811Z,94725.47
2024-01-16T04:19:24.923Z,94713.03
2024-01-16T04:23:08.088Z,94714.66
2024-01-16T04:26:51.894Z,94723.59
2024-01-16T04:30:35.037Z,94718.72
2024-01-16T04:34:19.496Z,94716.81
2024-01-16T04:38:02.337Z,94717.09
2024-01-16T04:41:45.372Z,94708.41
2024-01-16T04:45:28.362Z,94711.81
2024-01-16T04:49:11.292Z,94705.13
2024-01-16T04:52:55.536Z,94703.25
2024-01-16T04:56:38.448Z,94714.59
2024-01-16T05:00:21.446Z,94718.66
2024-01-16T05:04:05.134Z,94695.13
2024-01-16T05:07:48.175Z,94695.13
2024-01-16T05:11:32.684Z,94703.78
2024-01-16T05:15:16.021Z,94714.31
2024-01-16T05:18:59.062Z,94700.63
2024-01-16T05:22:42.089Z,94712.41
2024-01-16T05:26:27.361Z,94704.84
2024-01-16T05:30:12.632Z,94708.63
2024-01-16T05:33:55.671Z,94713.75
2024-01-16T05:37:38.774Z,94717.53
2024-01-16T05:41:21.753Z,94709.16
2024-01-16T05:45:05.262Z,94708.06
2024-01-16T05:48:49.746Z,94710.78
2024-01-16T05:52:32.769Z,94705.91
2024-01-16T05:56:15.868Z,94713.00
2024-01-16T05:59:58.836Z,94704.47
2024-01-16T06:03:41.809Z,94698.25
2024-01-16T06:07:26.058Z,94697.94
2024-01-16T06:11:10.084Z,94696.22
2024-01-16T06:14:54.018Z,94694.88
2024-01-16T06:18:37.232Z,94703.41
2024-01-16T06:22:20.336Z,94693.25
2024-01-16T06:26:04.703Z,94694.34
2024-01-16T06:29:47.784Z,94691.25
2024-01-16T06:33:31.002Z,94708.56
2024-01-16T06:37:14.004Z,94700.94
2024-01-16T06:40:57.297Z,94693.50
2024-01-16T06:44:41.686Z,94689.59
2024-01-16T06:48:24.851Z,94688.91
2024-01-16T06:52:10.301Z,94685.16
2024-01-16T06:55:53.166Z,94698.69
2024-01-16T06:59:36.069Z,94699.50
2024-01-16T07:03:20.400Z,94703.56
2024-01-16T07:07:04.008Z,94700.56
2024-01-16T07:10:47.196Z,94705.19
2024-01-16T07:14:30.143Z,94704.09
2024-01-16T07:18:13.294Z,94696.78
2024-01-16T07:21:57.641Z,94694.88
2024-01-16T07:25:41.108Z,94700.56
2024-01-16T07:29:23.994Z,94709.50
2024-01-16T07:33:06.980Z,94703.41
2024-01-16T07:36:50.269Z,94707.34
2024-01-16T07:40:34.467Z,94721.41
2024-01-16T07:44:17.376Z,94718.72
2024-01-16T07:48:00.587Z,94725.88
2024-01-16T07:51:43.470Z,94716.28
2024-01-16T07:55:26.387Z,94717.34
2024-01-16T07:59:10.818Z,94703.00
2024-01-16T08:02:56.483Z,94706.81
2024-01-16T08:06:39.519Z,94707.88
2024-01-16T08:10:25.745Z,94708.41
2024-01-16T08:14:10.142Z,94710.03
2024-01-16T08:17:56.268Z,94715.97
2024-01-16T08:21:39.250Z,94716.50
2024-01-16T08:25:22.183Z,94725.00
2024-01-16T08:29:06.365Z,94721.59
2024-01-16T08:32:50.721Z,94722.09
2024-01-16T08:36:33.845Z,94723.13
2024-01-16T08:40:16.877Z,94721.59
2024-01-16T08:44:01.942Z,94720.22
2024-01-16T08:47:44.990Z,94711.78
2024-01-16T08:51:29.401Z,94716.91
2024-01-16T08:55:13.655Z,94712.78
2024-01-16T08:58:56.828Z,94691.00
2024-01-16T09:02:39.846Z,94678.50
2024-01-16T09:06:23.222Z,94681.22
2024-01-16T09:10:08.592Z,94682.25
2024-01-16T09:13:55.076Z,94689.91
2024-01-16T09:17:38.265Z,94681.22
2024-01-16T09:21:21.267Z,94680.44
2024-01-16T09:25:04.273Z,94683.44
2024-01-16T09:28:48.578Z,94673.25
2024-01-16T09:32:31.878Z,94668.88
2024-01-16T09:36:14.935Z,94675.22
2024-01-16T09:39:57.883Z,94670.13
2024-01-16T09:43:41.344Z,94675.78
2024-01-16T09:47:26.822Z,94676.94
2024-01-16T09:51:09.958Z,94668.31
2024-01-16T09:54:52.863Z,94679.06
2024-01-16T09:58:39.016Z,94678.75
2024-01-16T10:02:23.202Z,94667.81
2024-01-16T10:06:09.069Z,94666.38
2024-01-16T10:09:52.143Z,94661.66
2024-01-16T10:13:35.282Z,94663.56
2024-01-16T10:17:19.729Z,94656.97
2024-01-16T10:21:03.057Z,94664.63
2024-01-16T10:24:47.678Z,94653.38
2024-01-16T10:28:30.594Z,94653.13
2024-01-16T10:32:13.585Z,94643.78
2024-01-16T10:36:10.013Z,94634.94
2024-01-16T10:39:54.287Z,94641.88
2024-01-16T10:43:37.285Z,94625.41
2024-01-16T10:47:20.181Z,94629.63
2024-01-16T10:51:12.817Z,94624.47
2024-01-16T10:54:59.473Z,94615.94
2024-01-16T10:58:43.683Z,94625.97
2024-01-16T11:02:30.396Z,94621.59
2024-01-16T11:06:14.606Z,94617.72
2024-01-16T11:09:59.069Z,94618.69
2024-01-16T11:13:42.363Z,94619.66
2024-01-16T11:17:25.838Z,94628.72
2024-01-16T11:21:14.319Z,94615.78
2024-01-16T11:25:14.732Z,94609.63
2024-01-16T11:28:58.288Z,94609.00
2024-01-16T11:32:42.715Z,94597.97
2024-01-16T11:37:02.375Z,94597.63
2024-01-16T11:40:46.785Z,94588.56
2024-01-16T11:44:43.628Z,94587.28
2024-01-16T11:48:27.107Z,94577.88
2024-01-16T11:52:12.277Z,94586.56
2024-01-16T11:56:13.646Z,94587.81
2024-01-16T12:00:01.311Z,94588.16
2024-01-16T12:03:44.527Z,94576.81
2024-01-16T12:07:27.475Z,94585.91
2024-01-16T12:11:11.786Z,94562.91
2024-01-16T12:14:55.696Z,94544.78
2024-01-16T12:18:43.053Z,94538.91
2024-01-16T12:22:29.598Z,94532.09
2024-01-16T12:26:22.247Z,94519.75
2024-01-16T12:30:09.486Z,94510.34
2024-01-16T12:33:58.363Z,94503.41
2024-01-16T12:37:59.970Z,94500.28
2024-01-16T12:41:46.464Z,94491.88
2024-01-16T12:45:30.779Z,94490.84
2024-01-16T12:49:13.817Z,94490.09
2024-01-16T12:53:06.589Z,94490.88
2024-01-16T12:57:00.430Z,94489.25
2024-01-16T13:00:43.763Z,94484.28
2024-01-16T13:04:26.678Z,94490.75
2024-01-16T13:08:10.008Z,94484.41
2024-01-16T13:11:56.717Z,94474.66
2024-01-16T13:15:40.091Z,94469.31
2024-01-16T13:19:23.601Z,94471.91
2024-01-16T13:23:06.546Z,94458.94
2024-01-16T13:26:49.462Z,94450.16
2024-01-16T13:30:43.771Z,94451.78
2024-01-16T13:34:30.538Z,94443.53
2024-01-16T13:38:14.393Z,94450.22
2024-01-16T13:41:57.632Z,94443.16
2024-01-16T13:45:42.721Z,94438.31
2024-01-16T13:49:25.818Z,94443.84
2024-01-16T13:53:09.035Z,94447.41
2024-01-16T13:57:02.666Z,94446.78
2024-01-16T14:00:54.669Z,94449.31
2024-01-16T14:04:37.682Z,94445.09
2024-01-16T14:08:23.001Z,94444.28
2024-01-16T14:12:09.729Z,94455.00
2024-01-16T14:15:54.352Z,94448.09
2024-01-16T14:19:37.351Z,94449.41
2024-01-16T14:23:21.673Z,94448.78
2024-01-16T14:27:05.496Z,94447.16
2024-01-16T14:30:50.010Z,94442.63
2024-01-16T14:34:34.446Z,94436.66
2024-01-16T14:38:17.510Z,94432.63
2024-01-16T14:42:00.821Z,94434.41
2024-01-16T14:45:44.025Z,94438.13
2024-01-16T14:49:32.629Z,94432.97
2024-01-16T14:53:17.037Z,94425.22
2024-01-16T14:57:00.164Z,94425.56
2024-01-16T15:00:46.727Z,94430.13
2024-01-16T15:04:29.758Z,94421.88
2024-01-16T15:08:14.174Z,94413.00
2024-01-16T15:11:58.680Z,94430.50
2024-01-16T15:15:41.675Z,94419.38
2024-01-16T15:19:24.612Z,94417.28
2024-01-16T15:23:07.627Z,94413.84
2024-01-16T15:26:50.590Z,94410.66
2024-01-16T15:30:36.858Z,94407.84
2024-01-16T15:34:19.966Z,94420.84
2024-01-16T15:38:03.861Z,94414.41
2024-01-16T15:41:47.323Z,94411.31
2024-01-16T15:45:30.949Z,94422.16
2024-01-16T15:49:16.082Z,94427.78
2024-01-16T15:52:59.279Z,94425.44
2024-01-16T15:56:42.156Z,94431.53
2024-01-16T16:00:24.998Z,94424.47
2024-01-16T16:04:08.325Z,94426.75
2024-01-16T16:07:52.698Z,94429.06
2024-01-16T16:11:37.123Z,94429.44
2024-01-16T16:15:20.205Z,94427.19
2024-01-16T16:19:03.345Z,94433.66
2024-01-16T16:22:48.392Z,94447.91
2024-01-16T16:26:34.073Z,94449.22
2024-01-16T16:30:17.156Z,94436.63
2024-01-16T16:34:01.463Z,94443.09
2024-01-16T16:37:45.432Z,94439.19
2024-01-16T16:41:29.807Z,94443.69
2024-01-16T16:45:14.146Z,94441.41
2024-01-16T16:48:57.627Z,94450.78
2024-01-16T16:52:40.778Z,94449.16
2024-01-16T16:56:24.848Z,94442.03
2024-01-16T17:00:09.632Z,94458.16
2024-01-16T17:03:54.693Z,94443.78
2024-01-16T17:07:37.758Z,94460.69
2024-01-16T17:11:20.837Z,94455.19
2024-01-16T17:15:05.784Z,94458.41
2024-01-16T17:18:49.147Z,94457.09
2024-01-16T17:22:33.427Z,94459.50
2024-01-16T17:26:16.621Z,94460.44
2024-01-16T17:29:59.796Z,94466.72
2024-01-16T17:33:44.209Z,94457.97
2024-01-16T17:37:27.758Z,94466.31
2024-01-16T17:41:12.190Z,94457.59
2024-01-16T17:44:59.837Z,94453.00
2024-01-16T17:48:44.384Z,94444.91
2024-01-16T17:52:27.427Z,94439.09
2024-01-16T17:56:10.580Z,94444.72
2024-01-16T17:59:55.102Z,94444.53
2024-01-16T18:03:43.078Z,94441.59
2024-01-16T18:07:29.689Z,94444.63
2024-01-16T18:11:13.932Z,94438.97
2024-01-16T18:14:58.694Z,94446.34
2024-01-16T18:18:43.144Z,94446.59
2024-01-16T18:22:26.400Z,94447.19
2024-01-16T18:26:09.937Z,94440.56
2024-01-16T18:29:52.958Z,94441.97
2024-01-16T18:33:39.457Z,94441.47
2024-01-16T18:37:23.062Z,94446.41
2024-01-16T18:41:06.252Z,94443.78
2024-01-16T18:44:49.819Z,94440.16
2024-01-16T18:48:34.270Z,94441.72
2024-01-16T18:52:18.946Z,94438.78
2024-01-16T18:56:01.829Z,94440.69
2024-01-16T18:59:46.246Z,94437.75
2024-01-16T19:03:29.280Z,94431.28
2024-01-16T19:07:13.952Z,94426.94
2024-01-16T19:10:58.144Z,94424.47
2024-01-16T19:14:45.918Z,94426.41
2024-01-16T19:18:32.364Z,94420.72
2024-01-16T19:22:15.384Z,94415.72
2024-01-16T19:25:59.776Z,94407.28
2024-01-16T19:29:42.670Z,94395.94
2024-01-16T19:33:25.649Z,94401.69
2024-01-16T19:37:08.752Z,94394.53
2024-01-16T19:40:51.878Z,94393.88
2024-01-16T19:44:36.116Z,94381.31
2024-01-16T19:48:20.493Z,94378.38
2024-01-16T19:52:03.834Z,94371.47
2024-01-16T19:55:47.600Z,94367.41
2024-01-16T19:59:32.051Z,94367.41
2024-01-16T20:03:16.473Z,94354.53
2024-01-16T20:06:59.511Z,94349.41
2024-01-16T20:10:42.485Z,94357.13
2024-01-16T20:14:25.453Z,94358.75
2024-01-16T20:18:10.813Z,94350.66
2024-01-16T20:21:55.193Z,94346.19
2024-01-16T20:25:38.034Z,94340.25
2024-01-16T20:29:21.321Z,94321.88
2024-01-16T20:33:04.523Z,94316.06
2024-01-16T20:36:52.966Z,94314.44
2024-01-16T20:40:38.364Z,94314.75
2024-01-16T20:44:21.911Z,94310.19
2024-01-16T20:48:05.615Z,94319.94
2024-01-16T20:51:48.825Z,94306.28
2024-01-16T20:55:31.730Z,94302.25
2024-01-16T20:59:15.987Z,94294.00
2024-01-16T21:02:58.930Z,94294.59
2024-01-16T21:06:42.820Z,94288.13
2024-01-16T21:10:25.725Z,94280.13
2024-01-16T21:14:08.608Z,94285.69
2024-01-16T21:17:53.312Z,94273.00
2024-01-16T21:21:36.363Z,94275.56
2024-01-16T21:25:20.495Z,94269.91
2024-01-16T21:29:03.385Z,94273.44
2024-01-16T21:32:46.342Z,94271.09
2024-01-16T21:36:31.411Z,94263.81
2024-01-16T21:40:14.758Z,94268.94
2024-01-16T21:43:57.912Z,94262.47
2024-01-16T21:47:41.069Z,94263.88
2024-01-16T21:51:24.547Z,94250.91
2024-01-16T21:55:09.763Z,94252.44
2024-01-16T21:58:52.619Z,94250.97
2024-01-16T22:02:35.538Z,94235.69
2024-01-16T22:06:18.506Z,94242.06
2024-01-16T22:10:01.619Z,94239.78
2024-01-16T22:13:46.185Z,94227.25
2024-01-16T22:17:30.572Z,94227.66
2024-01-16T22:21:13.606Z,94209.31
2024-01-16T22:24:56.515Z,94216.78
2024-01-16T22:28:44.507Z,94210.59
2024-01-16T22:32:30.346Z,94198.72
2024-01-16T22:36:16.221Z,94195.50
2024-01-16T22:39:59.113Z,94190.06
2024-01-16T22:43:41.990Z,94186.41
2024-01-16T22:47:24.978Z,94180.03
2024-01-16T22:51:10.490Z,94168.94
2024-01-16T22:54:53.525Z,94159.19
2024-01-16T22:58:36.432Z,94154.56
2024-01-16T23:02:19.305Z,94155.09
2024-01-16T23:06:02.740Z,94134.53
2024-01-16T23:09:48.154Z,94118.97
2024-01-16T23:13:31.334Z,94120.22
2024-01-16T23:17:14.185Z,94120.50
2024-01-16T23:20:57.082Z,94111.63
2024-01-16T23:24:40.030Z,94105.19
2024-01-16T23:28:24.314Z,94099.81
2024-01-16T23:32:08.409Z,94092.38
2024-01-16T23:35:51.281Z,94093.63
2024-01-16T23:39:35.668Z,94104.19
2024-01-16T23:43:24.160Z,94095.53
2024-01-16T23:47:08.982Z,94090.09
2024-01-16T23:50:52.674Z,94084.97
2024-01-16T23:54:35.551Z,94079.53
2024-01-16T23:58:18.421Z,94082.50
